createdAt,value
2023-04-22T00:00:15.641Z,60.14
2023-04-22T00:01:15.646Z,59.51
2023-04-22T00:02:15.686Z,59.94
2023-04-22T00:03:15.783Z,59.81
2023-04-22T00:04:15.923Z,60.14
2023-04-22T00:05:18.544Z,59.81
2023-04-22T00:06:15.568Z,59.74
2023-04-22T00:07:15.572Z,59.94
2023-04-22T00:08:15.571Z,60.05
2023-04-22T00:09:15.661Z,60.55
2023-04-22T00:10:15.530Z,59.84
2023-04-22T00:11:15.527Z,60.05
2023-04-22T00:12:15.510Z,60.45
2023-04-22T00:13:15.525Z,60.45
2023-04-22T00:14:15.503Z,60.96
2023-04-22T00:15:15.502Z,60.96
2023-04-22T00:16:15.554Z,60.99
2023-04-22T00:17:15.435Z,60.99
2023-04-22T00:18:15.439Z,60.58
2023-04-22T00:19:15.439Z,61.30
2023-04-22T00:20:15.422Z,60.48
2023-04-22T00:21:15.450Z,61.19
2023-04-22T00:22:15.392Z,61.09
2023-04-22T00:23:15.382Z,60.99
2023-04-22T00:24:15.385Z,61.50
2023-04-22T00:25:15.364Z,61.50
2023-04-22T00:26:15.352Z,61.71
2023-04-22T00:27:15.329Z,61.40
2023-04-22T00:28:15.327Z,61.09
2023-04-22T00:29:15.361Z,61.63
2023-04-22T00:30:15.310Z,62.14
2023-04-22T00:31:15.302Z,62.21
2023-04-22T00:32:15.276Z,62.35
2023-04-22T00:33:15.261Z,62.45
2023-04-22T00:34:15.257Z,62.55
2023-04-22T00:35:15.290Z,62.14
2023-04-22T00:36:15.248Z,62.14
2023-04-22T00:37:15.225Z,62.24
2023-04-22T00:38:15.545Z,62.24
2023-04-22T00:39:15.207Z,62.76
2023-04-22T00:40:15.341Z,62.65
2023-04-22T00:41:15.173Z,62.24
2023-04-22T00:42:15.177Z,62.55
2023-04-22T00:43:15.145Z,62.58
2023-04-22T00:44:15.164Z,62.55
2023-04-22T00:45:15.131Z,62.48
2023-04-22T00:46:15.163Z,62.14
2023-04-22T00:47:15.164Z,62.17
2023-04-22T00:48:15.110Z,62.14
2023-04-22T00:49:15.126Z,62.58
2023-04-22T00:50:15.090Z,62.58
2023-04-22T00:51:15.060Z,62.68
2023-04-22T00:52:15.049Z,62.45
2023-04-22T00:53:15.043Z,62.58
2023-04-22T00:54:15.028Z,62.78
2023-04-22T00:55:15.026Z,62.58
2023-04-22T00:56:15.012Z,62.68
2023-04-22T00:57:15.003Z,62.58
2023-04-22T00:58:15.006Z,63.09
2023-04-22T00:59:14.998Z,62.58
2023-04-22T01:00:14.967Z,62.68
2023-04-22T01:01:15.040Z,62.58
2023-04-22T01:02:15.039Z,62.71
2023-04-22T01:03:15.108Z,62.88
2023-04-22T01:04:15.053Z,62.68
2023-04-22T01:05:14.913Z,62.78
2023-04-22T01:06:14.912Z,62.58
2023-04-22T01:07:14.895Z,62.81
2023-04-22T01:08:14.868Z,62.58
2023-04-22T01:09:14.887Z,62.37
2023-04-22T01:10:14.885Z,62.68
2023-04-22T01:11:14.872Z,62.48
2023-04-22T01:12:14.837Z,62.88
2023-04-22T01:13:14.829Z,62.68
2023-04-22T01:14:14.816Z,62.61
2023-04-22T01:15:14.831Z,62.81
2023-04-22T01:16:14.802Z,62.78
2023-04-22T01:17:14.856Z,62.81
2023-04-22T01:18:15.043Z,62.81
2023-04-22T01:19:14.769Z,63.02
2023-04-22T01:20:14.966Z,62.81
2023-04-22T01:21:14.729Z,62.81
2023-04-22T01:22:14.718Z,62.61
2023-04-22T01:23:14.715Z,62.81
2023-04-22T01:24:14.698Z,63.02
2023-04-22T01:25:15.678Z,62.71
2023-04-22T01:26:14.669Z,62.81
2023-04-22T01:27:14.714Z,63.32
2023-04-22T01:28:14.657Z,63.22
2023-04-22T01:29:14.645Z,63.32
2023-04-22T01:30:14.621Z,63.22
2023-04-22T01:31:14.613Z,63.32
2023-04-22T01:32:14.699Z,63.02
2023-04-22T01:33:14.640Z,63.02
2023-04-22T01:34:14.609Z,63.43
2023-04-22T01:35:14.563Z,63.02
2023-04-22T01:36:14.560Z,63.32
2023-04-22T01:37:14.556Z,63.43
2023-04-22T01:38:14.536Z,63.73
2023-04-22T01:39:14.521Z,63.43
2023-04-22T01:40:14.530Z,63.32
2023-04-22T01:41:14.500Z,63.45
2023-04-22T01:42:14.501Z,63.43
2023-04-22T01:43:14.475Z,63.56
2023-04-22T01:44:14.473Z,63.63
2023-04-22T01:45:14.472Z,63.43
2023-04-22T01:46:14.472Z,63.56
2023-04-22T01:47:14.449Z,63.53
2023-04-22T01:48:14.486Z,63.73
2023-04-22T01:49:14.426Z,63.53
2023-04-22T01:50:14.408Z,63.63
2023-04-22T01:51:14.472Z,63.83
2023-04-22T01:52:14.393Z,63.66
2023-04-22T01:53:14.518Z,64.45
2023-04-22T01:54:14.355Z,63.86
2023-04-22T01:55:14.355Z,63.96
2023-04-22T01:56:14.342Z,63.63
2023-04-22T01:57:14.461Z,63.86
2023-04-22T01:58:14.313Z,63.86
2023-04-22T01:59:14.300Z,63.96
2023-04-22T02:00:14.394Z,63.86
2023-04-22T02:01:14.312Z,64.17
2023-04-22T02:02:14.311Z,63.86
2023-04-22T02:03:14.302Z,64.27
2023-04-22T02:04:14.266Z,64.37
2023-04-22T02:05:14.435Z,64.48
2023-04-22T02:06:14.224Z,64.37
2023-04-22T02:07:14.469Z,64.27
2023-04-22T02:08:14.236Z,64.10
2023-04-22T02:09:14.193Z,64.30
2023-04-22T02:10:14.196Z,64.61
2023-04-22T02:11:14.169Z,64.40
2023-04-22T02:12:14.154Z,64.58
2023-04-22T02:13:14.148Z,64.71
2023-04-22T02:14:14.149Z,64.51
2023-04-22T02:15:14.124Z,64.81
2023-04-22T02:16:14.160Z,64.81
2023-04-22T02:17:14.173Z,64.92
2023-04-22T02:18:14.093Z,64.92
2023-04-22T02:19:14.149Z,64.51
2023-04-22T02:20:14.101Z,64.61
2023-04-22T02:21:14.073Z,64.92
2023-04-22T02:22:14.043Z,64.81
2023-04-22T02:23:14.047Z,64.20
2023-04-22T02:24:14.230Z,64.30
2023-04-22T02:25:14.057Z,64.81
2023-04-22T02:26:14.043Z,64.81
2023-04-22T02:27:13.990Z,64.71
2023-04-22T02:28:13.982Z,64.51
2023-04-22T02:29:13.981Z,65.12
2023-04-22T02:30:13.976Z,64.40
2023-04-22T02:31:14.054Z,65.12
2023-04-22T02:32:13.940Z,64.51
2023-04-22T02:33:13.918Z,65.02
2023-04-22T02:34:13.907Z,64.92
2023-04-22T02:35:13.912Z,64.81
2023-04-22T02:36:13.910Z,64.10
2023-04-22T02:37:13.881Z,64.84
2023-04-22T02:38:13.884Z,64.54
2023-04-22T02:39:13.858Z,64.54
2023-04-22T02:40:13.851Z,64.54
2023-04-22T02:41:13.847Z,65.05
2023-04-22T02:42:13.818Z,64.23
2023-04-22T02:43:13.856Z,64.84
2023-04-22T02:44:13.795Z,65.05
2023-04-22T02:45:13.788Z,64.43
2023-04-22T02:46:13.864Z,64.43
2023-04-22T02:47:13.758Z,64.74
2023-04-22T02:48:13.757Z,64.13
2023-04-22T02:49:13.750Z,64.33
2023-04-22T02:50:13.734Z,64.23
2023-04-22T02:51:13.711Z,64.20
2023-04-22T02:52:13.714Z,64.23
2023-04-22T02:53:13.734Z,64.43
2023-04-22T02:54:13.690Z,64.33
2023-04-22T02:55:13.677Z,64.23
2023-04-22T02:56:13.664Z,64.54
2023-04-22T02:57:13.679Z,64.23
2023-04-22T02:58:13.648Z,64.13
2023-04-22T02:59:13.623Z,64.84
2023-04-22T03:00:13.654Z,64.64
2023-04-22T03:01:13.634Z,65.25
2023-04-22T03:02:13.829Z,64.95
2023-04-22T03:03:13.855Z,64.43
2023-04-22T03:04:13.869Z,64.54
2023-04-22T03:05:13.571Z,64.64
2023-04-22T03:06:13.576Z,65.25
2023-04-22T03:07:13.552Z,65.36
2023-04-22T03:08:13.526Z,65.15
2023-04-22T03:09:13.520Z,65.36
2023-04-22T03:10:13.511Z,65.77
2023-04-22T03:11:13.511Z,65.36
2023-04-22T03:12:13.480Z,65.97
2023-04-22T03:13:13.466Z,65.39
2023-04-22T03:14:13.470Z,65.66
2023-04-22T03:15:13.451Z,65.49
2023-04-22T03:16:13.498Z,65.69
2023-04-22T03:17:13.437Z,65.28
2023-04-22T03:18:13.424Z,66.58
2023-04-22T03:19:13.407Z,65.97
2023-04-22T03:20:13.386Z,65.77
2023-04-22T03:21:13.391Z,66.28
2023-04-22T03:22:13.369Z,66.28
2023-04-22T03:23:13.362Z,65.87
2023-04-22T03:24:13.361Z,66.31
2023-04-22T03:25:13.348Z,65.69
2023-04-22T03:26:13.330Z,65.90
2023-04-22T03:27:13.302Z,66.41
2023-04-22T03:28:13.297Z,66.61
2023-04-22T03:29:13.283Z,66.51
2023-04-22T03:30:13.716Z,66.31
2023-04-22T03:31:13.272Z,65.90
2023-04-22T03:32:13.387Z,66.61
2023-04-22T03:33:13.470Z,66.61
2023-04-22T03:34:13.328Z,66.75
2023-04-22T03:35:13.252Z,66.41
2023-04-22T03:36:13.217Z,65.90
2023-04-22T03:37:13.210Z,66.20
2023-04-22T03:38:13.234Z,66.44
2023-04-22T03:39:13.175Z,66.31
2023-04-22T03:40:13.862Z,66.64
2023-04-22T03:41:13.163Z,66.61
2023-04-22T03:42:13.156Z,66.75
2023-04-22T03:43:13.146Z,66.95
2023-04-22T03:44:13.162Z,67.26
2023-04-22T03:45:13.108Z,66.95
2023-04-22T03:46:13.159Z,66.85
2023-04-22T03:47:13.108Z,67.05
2023-04-22T03:48:13.078Z,67.05
2023-04-22T03:49:13.190Z,66.95
2023-04-22T03:50:13.070Z,66.64
2023-04-22T03:51:13.039Z,66.85
2023-04-22T03:52:13.037Z,67.26
2023-04-22T03:53:13.029Z,66.64
2023-04-22T03:54:13.698Z,67.26
2023-04-22T03:55:12.991Z,67.05
2023-04-22T03:56:13.251Z,66.95
2023-04-22T03:57:12.988Z,67.46
2023-04-22T03:58:12.966Z,66.85
2023-04-22T03:59:12.963Z,66.85
2023-04-22T04:00:12.957Z,66.95
2023-04-22T04:01:13.044Z,67.77
2023-04-22T04:02:12.992Z,67.67
2023-04-22T04:03:13.127Z,68.28
2023-04-22T04:04:13.119Z,68.38
2023-04-22T04:05:12.997Z,68.49
2023-04-22T04:06:12.958Z,68.38
2023-04-22T04:07:12.874Z,68.52
2023-04-22T04:08:12.841Z,68.32
2023-04-22T04:09:12.843Z,68.11
2023-04-22T04:10:12.820Z,68.38
2023-04-22T04:11:12.831Z,69.24
2023-04-22T04:12:12.816Z,69.51
2023-04-22T04:13:13.047Z,68.32
2023-04-22T04:14:12.789Z,68.52
2023-04-22T04:15:13.694Z,68.69
2023-04-22T04:16:12.801Z,68.32
2023-04-22T04:17:12.754Z,68.21
2023-04-22T04:18:12.735Z,68.41
2023-04-22T04:19:12.731Z,68.52
2023-04-22T04:20:12.758Z,68.32
2023-04-22T04:21:12.697Z,68.93
2023-04-22T04:22:12.704Z,68.52
2023-04-22T04:23:12.679Z,69.13
2023-04-22T04:24:12.674Z,68.73
2023-04-22T04:25:12.776Z,68.41
2023-04-22T04:26:12.658Z,68.49
2023-04-22T04:27:12.659Z,68.32
2023-04-22T04:28:12.635Z,68.41
2023-04-22T04:29:12.626Z,68.41
2023-04-22T04:30:12.606Z,69.34
2023-04-22T04:31:12.612Z,68.62
2023-04-22T04:32:12.576Z,68.38
2023-04-22T04:33:12.812Z,68.69
2023-04-22T04:34:12.656Z,68.18
2023-04-22T04:35:12.548Z,67.97
2023-04-22T04:36:12.533Z,68.28
2023-04-22T04:37:12.525Z,68.49
2023-04-22T04:38:12.496Z,69.10
2023-04-22T04:39:12.778Z,68.59
2023-04-22T04:40:12.753Z,68.79
2023-04-22T04:41:12.511Z,68.79
2023-04-22T04:42:12.462Z,69.10
2023-04-22T04:43:12.454Z,68.49
2023-04-22T04:44:12.440Z,68.59
2023-04-22T04:45:12.468Z,68.38
2023-04-22T04:46:12.516Z,68.49
2023-04-22T04:47:12.469Z,68.46
2023-04-22T04:48:12.497Z,67.87
2023-04-22T04:49:12.387Z,67.97
2023-04-22T04:50:12.393Z,68.49
2023-04-22T04:51:12.603Z,68.28
2023-04-22T04:52:12.358Z,68.21
2023-04-22T04:53:12.419Z,68.49
2023-04-22T04:54:12.331Z,68.18
2023-04-22T04:55:12.304Z,68.38
2023-04-22T04:56:12.315Z,68.18
2023-04-22T04:57:12.287Z,68.28
2023-04-22T04:58:12.477Z,68.28
2023-04-22T04:59:12.267Z,68.49
2023-04-22T05:00:12.291Z,68.08
2023-04-22T05:01:12.326Z,68.05
2023-04-22T05:02:12.335Z,68.25
2023-04-22T05:03:12.375Z,66.72
2023-04-22T05:04:12.495Z,67.74
2023-04-22T05:05:12.316Z,67.23
2023-04-22T05:06:12.198Z,67.84
2023-04-22T05:07:12.267Z,68.46
2023-04-22T05:08:12.166Z,67.84
2023-04-22T05:09:12.166Z,67.64
2023-04-22T05:10:12.215Z,67.23
2023-04-22T05:11:12.134Z,66.61
2023-04-22T05:12:12.309Z,67.64
2023-04-22T05:13:12.155Z,66.72
2023-04-22T05:14:12.202Z,66.58
2023-04-22T05:15:12.093Z,67.30
2023-04-22T05:16:12.141Z,66.89
2023-04-22T05:17:12.110Z,66.89
2023-04-22T05:18:12.105Z,66.89
2023-04-22T05:19:12.056Z,66.89
2023-04-22T05:20:12.034Z,67.10
2023-04-22T05:21:12.066Z,66.89
2023-04-22T05:22:12.015Z,67.30
2023-04-22T05:23:12.030Z,66.89
2023-04-22T05:24:11.996Z,66.89
2023-04-22T05:25:11.979Z,67.10
2023-04-22T05:26:11.972Z,66.58
2023-04-22T05:27:11.954Z,66.78
2023-04-22T05:28:12.044Z,66.96
2023-04-22T05:29:11.953Z,66.96
2023-04-22T05:30:11.928Z,66.86
2023-04-22T05:31:11.961Z,66.96
2023-04-22T05:32:11.984Z,66.66
2023-04-22T05:33:11.987Z,66.75
2023-04-22T05:34:11.890Z,66.55
2023-04-22T05:35:11.891Z,66.31
2023-04-22T05:36:11.938Z,66.21
2023-04-22T05:37:11.848Z,66.42
2023-04-22T05:38:11.845Z,66.11
2023-04-22T05:39:11.827Z,65.77
2023-04-22T05:40:11.856Z,65.80
2023-04-22T05:41:11.803Z,65.88
2023-04-22T05:42:11.821Z,64.75
2023-04-22T05:43:11.822Z,64.55
2023-04-22T05:44:11.802Z,64.55
2023-04-22T05:45:11.776Z,64.62
2023-04-22T05:46:11.798Z,64.42
2023-04-22T05:47:11.790Z,64.31
2023-04-22T05:48:11.798Z,63.81
2023-04-22T05:49:11.717Z,63.87
2023-04-22T05:50:11.710Z,63.87
2023-04-22T05:51:11.696Z,63.67
2023-04-22T05:52:11.664Z,63.44
2023-04-22T05:53:11.708Z,63.13
2023-04-22T05:54:11.671Z,63.13
2023-04-22T05:55:11.756Z,62.11
2023-04-22T05:56:11.628Z,62.32
2023-04-22T05:57:11.641Z,62.46
2023-04-22T05:58:11.599Z,61.44
2023-04-22T05:59:20.340Z,61.65
2023-04-22T06:00:11.581Z,61.34
2023-04-22T06:01:11.705Z,60.70
2023-04-22T06:02:11.695Z,60.73
2023-04-22T06:03:11.794Z,60.83
2023-04-22T06:04:11.841Z,61.41
2023-04-22T06:05:11.760Z,60.77
2023-04-22T06:06:11.516Z,60.37
2023-04-22T06:07:11.524Z,59.83
2023-04-22T06:08:11.485Z,58.78
2023-04-22T06:09:11.472Z,58.69
2023-04-22T06:10:11.461Z,58.45
2023-04-22T06:11:11.457Z,58.22
2023-04-22T06:12:11.455Z,57.99
2023-04-22T06:13:11.440Z,57.48
2023-04-22T06:14:11.413Z,56.85
2023-04-22T06:15:11.417Z,56.34
2023-04-22T06:16:11.404Z,55.80
2023-04-22T06:17:11.414Z,55.40
2023-04-22T06:18:12.243Z,54.86
2023-04-22T06:19:11.358Z,55.12
2023-04-22T06:20:11.363Z,54.08
2023-04-22T06:21:11.474Z,53.55
2023-04-22T06:22:11.330Z,53.22
2023-04-22T06:23:11.317Z,52.06
2023-04-22T06:24:11.342Z,51.12
2023-04-22T06:25:11.294Z,50.16
2023-04-22T06:26:11.293Z,49.04
2023-04-22T06:27:11.282Z,48.71
2023-04-22T06:28:11.256Z,48.58
2023-04-22T06:29:11.258Z,47.45
2023-04-22T06:30:11.243Z,47.11
2023-04-22T06:31:11.366Z,46.98
2023-04-22T06:32:11.224Z,46.15
2023-04-22T06:33:11.248Z,45.03
2023-04-22T06:34:11.210Z,45.21
2023-04-22T06:35:11.201Z,44.56
2023-04-22T06:36:11.189Z,44.22
2023-04-22T06:37:11.245Z,43.10
2023-04-22T06:38:11.152Z,41.66
2023-04-22T06:39:11.190Z,41.53
2023-04-22T06:40:11.154Z,40.69
2023-04-22T06:41:11.117Z,40.06
2023-04-22T06:42:11.112Z,39.15
2023-04-22T06:43:11.097Z,38.16
2023-04-22T06:44:11.128Z,38.54
2023-04-22T06:45:11.070Z,38.84
2023-04-22T06:46:11.107Z,38.38
2023-04-22T06:47:11.047Z,38.68
2023-04-22T06:48:11.054Z,38.98
2023-04-22T06:49:11.046Z,39.00
2023-04-22T06:50:11.022Z,39.09
2023-04-22T06:51:11.023Z,38.29
2023-04-22T06:52:10.992Z,38.28
2023-04-22T06:53:11.026Z,37.86
2023-04-22T06:54:10.961Z,37.66
2023-04-22T06:55:10.957Z,37.66
2023-04-22T06:56:10.947Z,37.32
2023-04-22T06:57:10.969Z,36.46
2023-04-22T06:58:11.776Z,34.55
2023-04-22T06:59:10.945Z,34.53
2023-04-22T07:00:10.911Z,34.45
2023-04-22T07:01:10.883Z,34.43
2023-04-22T07:02:10.963Z,34.50
2023-04-22T07:03:10.939Z,33.75
2023-04-22T07:04:10.873Z,32.71
2023-04-22T07:05:10.868Z,32.28
2023-04-22T07:06:10.835Z,31.21
2023-04-22T07:07:10.829Z,31.62
2023-04-22T07:08:10.847Z,32.18
2023-04-22T07:09:10.921Z,30.85
2023-04-22T07:10:10.791Z,30.13
2023-04-22T07:11:12.519Z,30.04
2023-04-22T07:12:10.804Z,29.88
2023-04-22T07:13:10.820Z,30.26
2023-04-22T07:14:10.747Z,30.06
2023-04-22T07:15:10.738Z,30.04
2023-04-22T07:16:10.758Z,29.34
2023-04-22T07:17:10.712Z,30.06
2023-04-22T07:18:10.705Z,30.06
2023-04-22T07:19:10.690Z,30.47
2023-04-22T07:20:10.705Z,30.26
2023-04-22T07:21:10.669Z,30.30
2023-04-22T07:22:10.666Z,28.69
2023-04-22T07:23:10.648Z,28.08
2023-04-22T07:24:10.657Z,28.03
2023-04-22T07:25:10.660Z,27.32
2023-04-22T07:26:10.610Z,26.69
2023-04-22T07:27:10.603Z,26.09
2023-04-22T07:28:10.604Z,25.70
2023-04-22T07:29:10.592Z,26.26
2023-04-22T07:30:10.561Z,28.19
2023-04-22T07:31:10.563Z,28.40
2023-04-22T07:32:10.662Z,27.79
2023-04-22T07:33:10.551Z,27.87
2023-04-22T07:34:10.649Z,27.58
2023-04-22T07:35:10.534Z,28.03
2023-04-22T07:36:10.499Z,26.70
2023-04-22T07:37:10.501Z,26.48
2023-04-22T07:38:12.693Z,26.05
2023-04-22T07:39:10.468Z,25.17
2023-04-22T07:40:10.537Z,24.47
2023-04-22T07:41:10.474Z,24.27
2023-04-22T07:42:10.443Z,24.87
2023-04-22T07:43:10.440Z,24.66
2023-04-22T07:44:10.413Z,24.74
2023-04-22T07:45:10.476Z,24.22
2023-04-22T07:46:10.439Z,22.85
2023-04-22T07:47:10.405Z,22.84
2023-04-22T07:48:10.404Z,23.02
2023-04-22T07:49:10.384Z,22.81
2023-04-22T07:50:10.346Z,23.00
2023-04-22T07:51:10.348Z,22.41
2023-04-22T07:52:10.349Z,22.80
2023-04-22T07:53:10.319Z,22.90
2023-04-22T07:54:10.321Z,23.03
2023-04-22T07:55:10.297Z,23.47
2023-04-22T07:56:10.323Z,23.99
2023-04-22T07:57:10.302Z,25.21
2023-04-22T07:58:10.264Z,25.98
2023-04-22T07:59:10.258Z,24.86
2023-04-22T08:00:10.294Z,24.35
2023-04-22T08:01:10.348Z,24.82
2023-04-22T08:02:10.351Z,24.40
2023-04-22T08:03:10.466Z,23.29
2023-04-22T08:04:10.587Z,22.22
2023-04-22T08:05:10.269Z,23.03
2023-04-22T08:06:10.361Z,23.12
2023-04-22T08:07:29.800Z,23.23
2023-04-22T08:08:11.176Z,22.44
2023-04-22T08:09:10.153Z,22.91
2023-04-22T08:10:10.142Z,22.97
2023-04-22T08:11:10.127Z,23.26
2023-04-22T08:12:10.128Z,23.24
2023-04-22T08:13:10.152Z,22.91
2023-04-22T08:14:10.112Z,22.79
2023-04-22T08:15:10.097Z,22.08
2023-04-22T08:16:10.118Z,21.96
2023-04-22T08:17:10.073Z,21.25
2023-04-22T08:18:10.152Z,20.18
2023-04-22T08:19:10.269Z,21.26
2023-04-22T08:20:10.047Z,21.06
2023-04-22T08:21:10.045Z,20.97
2023-04-22T08:22:10.017Z,20.56
2023-04-22T08:23:10.020Z,20.55
2023-04-22T08:24:10.020Z,20.44
2023-04-22T08:25:09.991Z,19.17
2023-04-22T08:26:10.013Z,19.94
2023-04-22T08:27:10.018Z,19.25
2023-04-22T08:28:09.995Z,19.81
2023-04-22T08:29:10.052Z,19.03
2023-04-22T08:30:09.942Z,19.43
2023-04-22T08:31:09.996Z,19.12
2023-04-22T08:32:10.037Z,19.24
2023-04-22T08:33:10.033Z,19.17
2023-04-22T08:34:09.899Z,20.25
2023-04-22T08:35:09.883Z,20.26
2023-04-22T08:36:09.912Z,19.86
2023-04-22T08:37:09.865Z,19.17
2023-04-22T08:38:09.864Z,19.45
2023-04-22T08:39:09.846Z,19.33
2023-04-22T08:40:09.856Z,18.84
2023-04-22T08:41:09.836Z,18.62
2023-04-22T08:42:09.841Z,17.93
2023-04-22T08:43:09.830Z,18.02
2023-04-22T08:44:09.797Z,17.82
2023-04-22T08:45:09.941Z,18.10
2023-04-22T08:46:09.819Z,18.01
2023-04-22T08:47:09.889Z,17.44
2023-04-22T08:48:09.792Z,18.25
2023-04-22T08:49:09.749Z,18.48
2023-04-22T08:50:09.825Z,19.17
2023-04-22T08:51:09.719Z,19.06
2023-04-22T08:52:09.715Z,18.85
2023-04-22T08:53:09.710Z,18.64
2023-04-22T08:54:09.699Z,18.79
2023-04-22T08:55:09.695Z,20.79
2023-04-22T08:56:09.676Z,20.83
2023-04-22T08:57:09.678Z,20.74
2023-04-22T08:58:09.664Z,21.23
2023-04-22T08:59:09.640Z,22.52
2023-04-22T09:00:09.666Z,21.75
2023-04-22T09:01:09.658Z,22.33
2023-04-22T09:02:09.665Z,22.00
2023-04-22T09:03:09.697Z,21.20
2023-04-22T09:04:09.701Z,20.79
2023-04-22T09:05:09.588Z,20.58
2023-04-22T09:06:09.571Z,19.99
2023-04-22T09:07:09.568Z,19.87
2023-04-22T09:08:09.548Z,19.09
2023-04-22T09:09:09.551Z,19.19
2023-04-22T09:10:09.545Z,20.06
2023-04-22T09:11:09.594Z,19.66
2023-04-22T09:12:09.540Z,19.86
2023-04-22T09:13:09.505Z,19.09
2023-04-22T09:14:09.511Z,19.38
2023-04-22T09:15:09.479Z,18.64
2023-04-22T09:16:09.487Z,20.61
2023-04-22T09:17:09.481Z,20.40
2023-04-22T09:18:09.478Z,20.10
2023-04-22T09:19:09.439Z,20.23
2023-04-22T09:20:09.433Z,21.51
2023-04-22T09:21:09.444Z,20.91
2023-04-22T09:22:09.452Z,21.19
2023-04-22T09:23:09.435Z,20.79
2023-04-22T09:24:09.403Z,20.74
2023-04-22T09:25:09.381Z,19.91
2023-04-22T09:26:09.368Z,20.12
2023-04-22T09:27:09.383Z,20.72
2023-04-22T09:28:09.369Z,21.04
2023-04-22T09:29:09.397Z,21.82
2023-04-22T09:30:09.351Z,21.01
2023-04-22T09:31:09.354Z,20.67
2023-04-22T09:32:09.438Z,19.25
2023-04-22T09:33:09.364Z,17.47
2023-04-22T09:34:09.293Z,18.76
2023-04-22T09:35:09.460Z,19.40
2023-04-22T09:36:09.302Z,19.70
2023-04-22T09:37:09.302Z,20.14
2023-04-22T09:38:09.260Z,20.93
2023-04-22T09:39:09.248Z,21.11
2023-04-22T09:40:09.251Z,20.78
2023-04-22T09:41:09.244Z,20.18
2023-04-22T09:42:09.215Z,19.17
2023-04-22T09:43:09.230Z,19.35
2023-04-22T09:44:09.832Z,19.05
2023-04-22T09:45:09.202Z,19.22
2023-04-22T09:46:09.196Z,17.96
2023-04-22T09:47:09.199Z,17.94
2023-04-22T09:48:09.158Z,18.48
2023-04-22T09:49:09.161Z,17.40
2023-04-22T09:50:09.156Z,17.94
2023-04-22T09:51:09.131Z,18.57
2023-04-22T09:52:09.119Z,18.10
2023-04-22T09:53:09.121Z,18.79
2023-04-22T09:54:09.158Z,18.71
2023-04-22T09:55:09.106Z,19.12
2023-04-22T09:56:09.843Z,20.04
2023-04-22T09:57:09.064Z,19.73
2023-04-22T09:58:09.076Z,20.29
2023-04-22T09:59:09.059Z,19.20
2023-04-22T10:00:09.042Z,18.89
2023-04-22T10:01:09.066Z,18.87
2023-04-22T10:02:09.079Z,19.07
2023-04-22T10:03:10.858Z,18.97
2023-04-22T10:04:09.039Z,19.81
2023-04-22T10:05:09.102Z,18.72
2023-04-22T10:06:09.024Z,18.79
2023-04-22T10:07:08.986Z,17.51
2023-04-22T10:08:09.078Z,17.69
2023-04-22T10:09:09.597Z,17.49
2023-04-22T10:10:09.035Z,16.90
2023-04-22T10:11:08.948Z,17.68
2023-04-22T10:12:08.929Z,17.37
2023-04-22T10:13:08.916Z,17.07
2023-04-22T10:14:08.906Z,16.90
2023-04-22T10:15:08.898Z,18.28
2023-04-22T10:16:08.910Z,18.49
2023-04-22T10:17:08.938Z,17.91
2023-04-22T10:18:08.871Z,17.40
2023-04-22T10:19:08.857Z,19.13
2023-04-22T10:20:08.856Z,19.85
2023-04-22T10:21:08.854Z,20.93
2023-04-22T10:22:08.845Z,20.36
2023-04-22T10:23:08.827Z,21.44
2023-04-22T10:24:08.812Z,20.63
2023-04-22T10:25:08.855Z,19.34
2023-04-22T10:26:08.804Z,19.73
2023-04-22T10:27:08.786Z,19.81
2023-04-22T10:28:08.780Z,19.51
2023-04-22T10:29:08.759Z,20.01
2023-04-22T10:30:08.803Z,20.01
2023-04-22T10:31:08.810Z,20.61
2023-04-22T10:32:10.768Z,20.32
2023-04-22T10:33:08.745Z,19.74
2023-04-22T10:34:08.709Z,20.86
2023-04-22T10:35:08.698Z,21.55
2023-04-22T10:36:08.744Z,21.36
2023-04-22T10:37:08.697Z,20.78
2023-04-22T10:38:08.675Z,21.77
2023-04-22T10:39:08.661Z,21.84
2023-04-22T10:40:08.657Z,20.83
2023-04-22T10:41:08.659Z,20.03
2023-04-22T10:42:08.644Z,19.12
2023-04-22T10:43:08.645Z,19.30
2023-04-22T10:44:08.615Z,19.42
2023-04-22T10:45:08.607Z,19.04
2023-04-22T10:46:08.711Z,18.62
2023-04-22T10:47:08.581Z,18.67
2023-04-22T10:48:08.597Z,17.68
2023-04-22T10:49:08.831Z,18.10
2023-04-22T10:50:08.695Z,18.51
2023-04-22T10:51:08.554Z,17.66
2023-04-22T10:52:08.591Z,19.00
2023-04-22T10:53:08.543Z,19.42
2023-04-22T10:54:08.524Z,20.06
2023-04-22T10:55:08.518Z,20.38
2023-04-22T10:56:08.520Z,20.55
2023-04-22T10:57:08.494Z,19.84
2023-04-22T10:58:08.482Z,19.26
2023-04-22T10:59:08.469Z,19.42
2023-04-22T11:00:08.484Z,19.40
2023-04-22T11:01:08.496Z,19.28
2023-04-22T11:02:08.559Z,18.21
2023-04-22T11:03:08.524Z,18.33
2023-04-22T11:04:08.505Z,20.55
2023-04-22T11:05:08.415Z,21.56
2023-04-22T11:06:08.429Z,20.92
2023-04-22T11:07:08.458Z,19.34
2023-04-22T11:08:08.410Z,18.74
2023-04-22T11:09:08.481Z,19.43
2023-04-22T11:10:08.371Z,18.95
2023-04-22T11:11:08.366Z,19.61
2023-04-22T11:12:08.350Z,18.53
2023-04-22T11:13:08.396Z,19.35
2023-04-22T11:14:08.334Z,20.07
2023-04-22T11:15:08.315Z,20.80
2023-04-22T11:16:08.325Z,21.30
2023-04-22T11:17:08.318Z,21.30
2023-04-22T11:18:08.295Z,21.80
2023-04-22T11:19:08.923Z,20.70
2023-04-22T11:20:08.302Z,21.58
2023-04-22T11:21:08.271Z,21.30
2023-04-22T11:22:08.256Z,20.79
2023-04-22T11:23:08.256Z,20.58
2023-04-22T11:24:08.239Z,21.15
2023-04-22T11:25:08.248Z,20.06
2023-04-22T11:26:08.337Z,19.20
2023-04-22T11:27:08.214Z,20.59
2023-04-22T11:28:08.339Z,20.94
2023-04-22T11:29:08.187Z,21.53
2023-04-22T11:30:08.189Z,22.31
2023-04-22T11:31:08.398Z,21.84
2023-04-22T11:32:08.156Z,21.67
2023-04-22T11:33:08.173Z,22.96
2023-04-22T11:34:08.143Z,22.96
2023-04-22T11:35:08.130Z,23.25
2023-04-22T11:36:08.125Z,23.24
2023-04-22T11:37:08.112Z,23.23
2023-04-22T11:38:08.119Z,23.74
2023-04-22T11:39:08.092Z,24.13
2023-04-22T11:40:27.760Z,23.70
2023-04-22T11:41:09.096Z,22.80
2023-04-22T11:42:08.065Z,22.87
2023-04-22T11:43:08.409Z,22.86
2023-04-22T11:44:08.046Z,23.09
2023-04-22T11:45:08.029Z,22.91
2023-04-22T11:46:08.048Z,23.31
2023-04-22T11:47:08.035Z,23.10
2023-04-22T11:48:08.021Z,22.59
2023-04-22T11:49:07.995Z,22.41
2023-04-22T11:50:07.984Z,23.53
2023-04-22T11:51:07.980Z,23.83
2023-04-22T11:52:07.965Z,23.92
2023-04-22T11:53:07.979Z,23.60
2023-04-22T11:54:07.949Z,23.52
2023-04-22T11:55:07.940Z,23.12
2023-04-22T11:56:07.932Z,22.85
2023-04-22T11:57:08.028Z,23.45
2023-04-22T11:58:07.912Z,23.38
2023-04-22T11:59:07.903Z,24.35
2023-04-22T12:00:17.412Z,24.24
2023-04-22T12:01:07.900Z,23.16
2023-04-22T12:02:07.975Z,24.05
2023-04-22T12:03:08.176Z,24.66
2023-04-22T12:04:07.959Z,25.27
2023-04-22T12:05:07.867Z,24.37
2023-04-22T12:06:07.857Z,24.18
2023-04-22T12:07:07.824Z,24.51
2023-04-22T12:08:07.821Z,26.08
2023-04-22T12:09:07.805Z,26.09
2023-04-22T12:10:07.802Z,26.40
2023-04-22T12:11:07.802Z,25.60
2023-04-22T12:12:07.777Z,25.88
2023-04-22T12:13:07.941Z,25.96
2023-04-22T12:14:07.757Z,24.68
2023-04-22T12:15:07.764Z,24.77
2023-04-22T12:16:07.737Z,24.59
2023-04-22T12:17:07.773Z,24.98
2023-04-22T12:18:07.795Z,24.52
2023-04-22T12:19:07.735Z,25.03
2023-04-22T12:20:07.831Z,25.95
2023-04-22T12:21:07.698Z,26.24
2023-04-22T12:22:07.683Z,26.42
2023-04-22T12:23:07.690Z,25.52
2023-04-22T12:24:07.667Z,24.84
2023-04-22T12:25:07.856Z,25.55
2023-04-22T12:26:07.644Z,26.17
2023-04-22T12:27:07.636Z,27.09
2023-04-22T12:28:07.623Z,27.39
2023-04-22T12:29:07.654Z,26.49
2023-04-22T12:30:07.607Z,26.20
2023-04-22T12:31:07.662Z,27.09
2023-04-22T12:32:07.640Z,27.39
2023-04-22T12:33:07.594Z,26.39
2023-04-22T12:34:07.746Z,26.89
2023-04-22T12:35:07.560Z,27.18
2023-04-22T12:36:07.568Z,28.09
2023-04-22T12:37:07.543Z,28.21
2023-04-22T12:38:07.537Z,27.91
2023-04-22T12:39:07.556Z,28.03
2023-04-22T12:40:07.537Z,28.21
2023-04-22T12:41:07.523Z,28.99
2023-04-22T12:42:07.544Z,27.77
2023-04-22T12:43:07.502Z,26.97
2023-04-22T12:44:07.470Z,25.98
2023-04-22T12:45:07.484Z,26.46
2023-04-22T12:46:07.472Z,26.59
2023-04-22T12:47:07.489Z,27.09
2023-04-22T12:48:07.466Z,27.80
2023-04-22T12:49:07.425Z,27.62
2023-04-22T12:50:07.417Z,27.90
2023-04-22T12:51:07.402Z,27.31
2023-04-22T12:52:07.392Z,27.40